createdAt,value
2022-10-01T00:00:47.176Z,80.17
2022-10-01T00:01:47.228Z,79.93
2022-10-01T00:02:47.192Z,80.23
2022-10-01T00:03:47.146Z,79.93
2022-10-01T00:04:47.158Z,79.93
2022-10-01T00:05:47.126Z,79.82
2022-10-01T00:06:47.127Z,79.82
2022-10-01T00:07:47.108Z,79.93
2022-10-01T00:08:47.088Z,79.93
2022-10-01T00:09:47.086Z,79.82
2022-10-01T00:10:47.068Z,79.82
2022-10-01T00:11:47.076Z,79.93
2022-10-01T00:12:47.049Z,79.93
2022-10-01T00:13:47.039Z,79.93
2022-10-01T00:14:47.028Z,79.93
2022-10-01T00:15:47.021Z,79.93
2022-10-01T00:16:47.098Z,80.03
2022-10-01T00:17:47.000Z,80.33
2022-10-01T00:18:46.992Z,80.54
2022-10-01T00:19:46.980Z,80.74
2022-10-01T00:20:46.961Z,81.05
2022-10-01T00:21:46.971Z,81.57
2022-10-01T00:22:46.942Z,81.57
2022-10-01T00:23:46.939Z,81.77
2022-10-01T00:24:46.913Z,81.77
2022-10-01T00:25:46.916Z,81.77
2022-10-01T00:26:46.921Z,81.67
2022-10-01T00:27:46.977Z,81.63
2022-10-01T00:28:46.873Z,81.52
2022-10-01T00:29:46.877Z,81.52
2022-10-01T00:30:46.856Z,81.43
2022-10-01T00:31:46.943Z,81.43
2022-10-01T00:32:46.833Z,81.32
2022-10-01T00:33:46.826Z,81.32
2022-10-01T00:34:46.815Z,81.32
2022-10-01T00:35:46.806Z,81.32
2022-10-01T00:36:46.814Z,81.22
2022-10-01T00:37:46.786Z,81.22
2022-10-01T00:38:46.766Z,81.32
2022-10-01T00:39:46.778Z,81.22
2022-10-01T00:40:46.750Z,81.22
2022-10-01T00:41:46.757Z,81.32
2022-10-01T00:42:46.726Z,81.32
2022-10-01T00:43:46.738Z,81.43
2022-10-01T00:44:46.710Z,81.32
2022-10-01T00:45:46.762Z,81.43
2022-10-01T00:46:46.697Z,81.43
2022-10-01T00:47:46.678Z,81.32
2022-10-01T00:48:46.667Z,81.43
2022-10-01T00:49:46.657Z,81.32
2022-10-01T00:50:46.648Z,81.43
2022-10-01T00:51:46.649Z,81.32
2022-10-01T00:52:46.620Z,81.32
2022-10-01T00:53:46.621Z,81.32
2022-10-01T00:54:46.601Z,81.32
2022-10-01T00:55:46.600Z,81.22
2022-10-01T00:56:46.599Z,81.22
2022-10-01T00:57:46.582Z,81.22
2022-10-01T00:58:46.561Z,81.22
2022-10-01T00:59:46.554Z,81.12
2022-10-01T01:00:46.543Z,81.12
2022-10-01T01:01:46.618Z,81.12
2022-10-01T01:02:46.624Z,81.12
2022-10-01T01:03:46.515Z,81.12
2022-10-01T01:04:46.492Z,81.12
2022-10-01T01:05:46.491Z,81.12
2022-10-01T01:06:46.496Z,81.12
2022-10-01T01:07:46.479Z,81.12
2022-10-01T01:08:46.454Z,81.22
2022-10-01T01:09:46.461Z,81.22
2022-10-01T01:10:46.436Z,81.22
2022-10-01T01:11:46.442Z,81.22
2022-10-01T01:12:46.415Z,81.32
2022-10-01T01:13:46.407Z,81.32
2022-10-01T01:14:46.396Z,81.22
2022-10-01T01:15:46.462Z,81.12
2022-10-01T01:16:46.387Z,81.12
2022-10-01T01:17:46.370Z,81.01
2022-10-01T01:18:46.347Z,81.01
2022-10-01T01:19:46.347Z,81.12
2022-10-01T01:20:46.329Z,81.12
2022-10-01T01:21:46.338Z,81.12
2022-10-01T01:22:46.309Z,81.12
2022-10-01T01:23:46.299Z,81.12
2022-10-01T01:24:46.290Z,81.12
2022-10-01T01:25:46.282Z,81.01
2022-10-01T01:26:46.282Z,81.01
2022-10-01T01:27:46.324Z,80.91
2022-10-01T01:28:46.248Z,80.81
2022-10-01T01:29:46.260Z,80.81
2022-10-01T01:30:46.271Z,80.81
2022-10-01T01:31:46.233Z,80.81
2022-10-01T01:32:46.213Z,80.71
2022-10-01T01:33:46.191Z,80.71
2022-10-01T01:34:46.182Z,80.71
2022-10-01T01:35:46.172Z,80.71
2022-10-01T01:36:46.193Z,80.71
2022-10-01T01:37:46.152Z,80.71
2022-10-01T01:38:46.145Z,80.71
2022-10-01T01:39:46.142Z,80.71
2022-10-01T01:40:46.135Z,80.71
2022-10-01T01:41:46.128Z,80.71
2022-10-01T01:42:46.104Z,80.71
2022-10-01T01:43:46.097Z,80.71
2022-10-01T01:44:46.084Z,80.71
2022-10-01T01:45:46.172Z,80.71
2022-10-01T01:46:46.076Z,80.60
2022-10-01T01:47:46.046Z,80.60
2022-10-01T01:48:46.038Z,80.60
2022-10-01T01:49:46.026Z,80.40
2022-10-01T01:50:46.018Z,80.40
2022-10-01T01:51:46.027Z,80.51
2022-10-01T01:52:46.001Z,80.51
2022-10-01T01:53:45.988Z,80.51
2022-10-01T01:54:45.978Z,80.40
2022-10-01T01:55:45.962Z,80.40
2022-10-01T01:56:45.970Z,80.40
2022-10-01T01:57:45.939Z,80.36
2022-10-01T01:58:45.939Z,80.30
2022-10-01T01:59:45.919Z,80.16
2022-10-01T02:00:45.919Z,80.26
2022-10-01T02:01:45.969Z,80.26
2022-10-01T02:02:45.932Z,80.16
2022-10-01T02:03:45.879Z,80.05
2022-10-01T02:04:45.875Z,80.16
2022-10-01T02:05:45.861Z,79.96
2022-10-01T02:06:45.862Z,79.96
2022-10-01T02:07:45.831Z,79.96
2022-10-01T02:08:45.823Z,79.85
2022-10-01T02:09:45.814Z,79.96
2022-10-01T02:10:45.803Z,79.96
2022-10-01T02:11:45.803Z,79.85
2022-10-01T02:12:45.784Z,79.85
2022-10-01T02:13:45.776Z,79.64
2022-10-01T02:14:45.763Z,79.64
2022-10-01T02:15:45.767Z,79.64
2022-10-01T02:16:45.762Z,79.64
2022-10-01T02:17:45.734Z,79.44
2022-10-01T02:18:45.719Z,79.34
2022-10-01T02:19:45.707Z,79.13
2022-10-01T02:20:45.706Z,79.13
2022-10-01T02:21:45.706Z,79.13
2022-10-01T02:22:45.684Z,79.24
2022-10-01T02:23:45.666Z,79.24
2022-10-01T02:24:45.656Z,78.93
2022-10-01T02:25:45.648Z,78.83
2022-10-01T02:26:45.688Z,78.83
2022-10-01T02:27:45.649Z,78.83
2022-10-01T02:28:45.617Z,78.83
2022-10-01T02:29:45.598Z,78.83
2022-10-01T02:30:45.621Z,78.93
2022-10-01T02:31:45.589Z,78.72
2022-10-01T02:32:45.591Z,78.63
2022-10-01T02:33:45.572Z,78.63
2022-10-01T02:34:45.551Z,78.63
2022-10-01T02:35:45.540Z,78.63
2022-10-01T02:36:45.530Z,78.63
2022-10-01T02:37:45.531Z,78.63
2022-10-01T02:38:45.511Z,78.42
2022-10-01T02:39:45.491Z,78.28
2022-10-01T02:40:45.498Z,78.28
2022-10-01T02:41:45.471Z,78.28
2022-10-01T02:42:45.482Z,78.28
2022-10-01T02:43:45.453Z,78.17
2022-10-01T02:44:45.454Z,78.17
2022-10-01T02:45:45.454Z,78.17
2022-10-01T02:46:45.423Z,78.08
2022-10-01T02:47:45.423Z,77.87
2022-10-01T02:48:45.403Z,77.97
2022-10-01T02:49:45.394Z,77.97
2022-10-01T02:50:45.374Z,77.97
2022-10-01T02:51:45.366Z,77.97
2022-10-01T02:52:45.386Z,77.97
2022-10-01T02:53:45.345Z,77.97
2022-10-01T02:54:45.337Z,77.76
2022-10-01T02:55:45.326Z,77.76
2022-10-01T02:56:48.811Z,77.87
2022-10-01T02:57:45.317Z,77.87
2022-10-01T02:58:45.298Z,77.87
2022-10-01T02:59:45.278Z,77.76
2022-10-01T03:00:45.278Z,77.56
2022-10-01T03:01:45.272Z,77.46
2022-10-01T03:02:45.329Z,77.46
2022-10-01T03:03:45.238Z,77.67
2022-10-01T03:04:45.238Z,77.67
2022-10-01T03:05:45.219Z,77.67
2022-10-01T03:06:45.211Z,77.46
2022-10-01T03:07:45.211Z,77.56
2022-10-01T03:08:45.190Z,77.36
2022-10-01T03:09:45.180Z,77.36
2022-10-01T03:10:46.924Z,77.36
2022-10-01T03:11:45.160Z,77.36
2022-10-01T03:12:45.170Z,77.36
2022-10-01T03:13:45.132Z,77.26
2022-10-01T03:14:45.130Z,77.46
2022-10-01T03:15:45.154Z,77.46
2022-10-01T03:16:45.105Z,77.26
2022-10-01T03:17:45.119Z,77.36
2022-10-01T03:18:45.083Z,77.46
2022-10-01T03:19:45.087Z,77.46
2022-10-01T03:20:45.063Z,77.46
2022-10-01T03:21:45.053Z,77.46
2022-10-01T03:22:45.062Z,77.46
2022-10-01T03:23:45.025Z,77.46
2022-10-01T03:24:45.030Z,77.36
2022-10-01T03:25:45.005Z,77.46
2022-10-01T03:26:45.017Z,77.56
2022-10-01T03:27:45.041Z,77.46
2022-10-01T03:28:44.975Z,77.56
2022-10-01T03:29:44.967Z,77.67
2022-10-01T03:30:44.956Z,77.56
2022-10-01T03:31:45.005Z,77.56
2022-10-01T03:32:44.956Z,77.67
2022-10-01T03:33:44.937Z,77.46
2022-10-01T03:34:44.917Z,77.56
2022-10-01T03:35:44.909Z,77.46
2022-10-01T03:36:44.901Z,77.56
2022-10-01T03:37:44.889Z,77.56
2022-10-01T03:38:44.878Z,77.53
2022-10-01T03:39:44.868Z,77.53
2022-10-01T03:40:44.850Z,77.53
2022-10-01T03:41:44.839Z,77.63
2022-10-01T03:42:44.850Z,77.53
2022-10-01T03:43:44.821Z,77.53
2022-10-01T03:44:44.820Z,77.53
2022-10-01T03:45:44.838Z,77.42
2022-10-01T03:46:44.791Z,77.42
2022-10-01T03:47:44.791Z,77.53
2022-10-01T03:48:44.772Z,77.42
2022-10-01T03:49:44.752Z,77.42
2022-10-01T03:50:44.750Z,77.32
2022-10-01T03:51:44.733Z,77.32
2022-10-01T03:52:44.746Z,77.32
2022-10-01T03:53:44.713Z,77.42
2022-10-01T03:54:44.704Z,77.53
2022-10-01T03:55:44.695Z,77.53
2022-10-01T03:56:44.688Z,77.42
2022-10-01T03:57:44.684Z,77.53
2022-10-01T03:58:44.668Z,77.53
2022-10-01T03:59:44.648Z,77.42
2022-10-01T04:00:44.644Z,77.32
2022-10-01T04:01:44.684Z,77.32
2022-10-01T04:02:44.788Z,77.32
2022-10-01T04:03:44.608Z,77.32
2022-10-01T04:04:44.597Z,77.29
2022-10-01T04:05:44.587Z,77.29
2022-10-01T04:06:44.577Z,77.39
2022-10-01T04:07:44.578Z,77.29
2022-10-01T04:08:44.558Z,77.19
2022-10-01T04:09:44.540Z,77.29
2022-10-01T04:10:44.535Z,77.70
2022-10-01T04:11:44.521Z,78.00
2022-10-01T04:12:44.549Z,78.11
2022-10-01T04:13:44.500Z,78.31
2022-10-01T04:14:44.491Z,78.61
2022-10-01T04:15:44.508Z,78.92
2022-10-01T04:16:44.471Z,79.53
2022-10-01T04:17:46.146Z,79.74
2022-10-01T04:18:44.451Z,80.15
2022-10-01T04:19:44.439Z,80.25
2022-10-01T04:20:44.434Z,80.76
2022-10-01T04:21:44.422Z,80.76
2022-10-01T04:22:44.426Z,80.90
2022-10-01T04:23:44.393Z,81.21
2022-10-01T04:24:44.399Z,81.72
2022-10-01T04:25:44.375Z,82.34
2022-10-01T04:26:44.373Z,82.64
2022-10-01T04:27:44.437Z,82.43
2022-10-01T04:28:44.343Z,83.25
2022-10-01T04:29:44.334Z,83.66
2022-10-01T04:30:44.325Z,83.76
2022-10-01T04:31:44.326Z,83.56
2022-10-01T04:32:44.317Z,84.17
2022-10-01T04:33:44.305Z,84.52
2022-10-01T04:34:44.286Z,84.22
2022-10-01T04:35:44.268Z,85.14
2022-10-01T04:36:44.257Z,85.24
2022-10-01T04:37:44.270Z,86.05
2022-10-01T04:38:44.237Z,85.96
2022-10-01T04:39:44.248Z,86.67
2022-10-01T04:40:44.219Z,86.46
2022-10-01T04:41:44.207Z,86.77
2022-10-01T04:42:44.209Z,86.77
2022-10-01T04:43:44.194Z,86.88
2022-10-01T04:44:44.179Z,87.12
2022-10-01T04:45:44.161Z,87.49
2022-10-01T04:46:44.192Z,87.43
2022-10-01T04:47:44.179Z,87.63
2022-10-01T04:48:44.141Z,87.94
2022-10-01T04:49:44.122Z,87.84
2022-10-01T04:50:44.118Z,88.04
2022-10-01T04:51:44.101Z,87.94
2022-10-01T04:52:44.101Z,87.84
2022-10-01T04:53:44.083Z,87.94
2022-10-01T04:54:44.077Z,88.14
2022-10-01T04:55:44.052Z,88.04
2022-10-01T04:56:44.053Z,88.56
2022-10-01T04:57:44.057Z,88.76
2022-10-01T04:58:44.023Z,88.65
2022-10-01T04:59:44.014Z,88.96
2022-10-01T05:00:44.041Z,89.06
2022-10-01T05:01:44.103Z,89.37
2022-10-01T05:02:43.995Z,89.47
2022-10-01T05:03:43.975Z,89.47
2022-10-01T05:04:43.964Z,89.27
2022-10-01T05:05:43.956Z,89.58
2022-10-01T05:06:43.945Z,89.37
2022-10-01T05:07:43.945Z,89.58
2022-10-01T05:08:43.924Z,89.89
2022-10-01T05:09:43.906Z,89.98
2022-10-01T05:10:43.907Z,90.03
2022-10-01T05:11:43.887Z,90.34
2022-10-01T05:12:43.907Z,90.44
2022-10-01T05:13:43.872Z,90.34
2022-10-01T05:14:43.860Z,90.13
2022-10-01T05:15:43.849Z,90.44
2022-10-01T05:16:43.893Z,90.34
2022-10-01T05:17:43.841Z,90.54
2022-10-01T05:18:43.779Z,90.54
2022-10-01T05:19:43.750Z,90.75
2022-10-01T05:20:43.741Z,90.75
2022-10-01T05:21:43.730Z,90.75
2022-10-01T05:22:43.738Z,90.95
2022-10-01T05:23:43.711Z,90.84
2022-10-01T05:24:43.701Z,91.16
2022-10-01T05:25:43.742Z,91.46
2022-10-01T05:26:43.702Z,91.36
2022-10-01T05:27:43.798Z,91.87
2022-10-01T05:28:43.652Z,91.67
2022-10-01T05:29:43.644Z,91.67
2022-10-01T05:30:43.642Z,91.87
2022-10-01T05:31:43.683Z,92.08
2022-10-01T05:32:43.623Z,92.08
2022-10-01T05:33:43.607Z,92.18
2022-10-01T05:34:43.614Z,91.97
2022-10-01T05:35:43.584Z,92.08
2022-10-01T05:36:43.585Z,91.87
2022-10-01T05:37:43.555Z,92.08
2022-10-01T05:38:43.555Z,92.18
2022-10-01T05:39:43.544Z,92.18
2022-10-01T05:40:43.526Z,92.59
2022-10-01T05:41:43.545Z,92.49
2022-10-01T05:42:43.514Z,92.28
2022-10-01T05:43:43.498Z,92.08
2022-10-01T05:44:43.497Z,92.08
2022-10-01T05:45:43.533Z,92.28
2022-10-01T05:46:43.468Z,92.38
2022-10-01T05:47:43.475Z,92.49
2022-10-01T05:48:43.438Z,92.28
2022-10-01T05:49:43.439Z,92.38
2022-10-01T05:50:43.421Z,92.43
2022-10-01T05:51:43.406Z,92.69
2022-10-01T05:52:43.409Z,92.74
2022-10-01T05:53:47.062Z,92.74
2022-10-01T05:54:44.381Z,92.53
2022-10-01T05:55:43.369Z,92.63
2022-10-01T05:56:43.357Z,92.63
2022-10-01T05:57:43.371Z,92.53
2022-10-01T05:58:43.331Z,92.63
2022-10-01T05:59:43.331Z,92.63
2022-10-01T06:00:43.312Z,92.83
2022-10-01T06:01:43.371Z,92.83
2022-10-01T06:02:43.419Z,92.83
2022-10-01T06:03:43.293Z,92.83
2022-10-01T06:04:43.273Z,93.04
2022-10-01T06:05:43.273Z,93.20
2022-10-01T06:06:43.253Z,92.90
2022-10-01T06:07:43.262Z,92.28
2022-10-01T06:08:43.243Z,92.63
2022-10-01T06:09:43.225Z,92.38
2022-10-01T06:10:43.216Z,92.32
2022-10-01T06:11:43.205Z,92.83
2022-10-01T06:12:43.205Z,92.83
2022-10-01T06:13:43.186Z,92.94
2022-10-01T06:14:43.185Z,93.15
2022-10-01T06:15:43.166Z,93.15
2022-10-01T06:16:43.203Z,93.04
2022-10-01T06:17:43.157Z,93.25
2022-10-01T06:18:43.125Z,93.04
2022-10-01T06:19:43.116Z,93.15
2022-10-01T06:20:43.118Z,92.94
2022-10-01T06:21:43.098Z,93.04
2022-10-01T06:22:43.098Z,93.25
2022-10-01T06:23:43.079Z,92.94
2022-10-01T06:24:43.069Z,92.74
2022-10-01T06:25:43.057Z,92.74
2022-10-01T06:26:43.050Z,93.04
2022-10-01T06:27:43.050Z,93.15
2022-10-01T06:28:43.120Z,92.83
2022-10-01T06:29:43.020Z,92.94
2022-10-01T06:30:43.003Z,93.15
2022-10-01T06:31:43.016Z,93.25
2022-10-01T06:32:42.991Z,93.35
2022-10-01T06:33:42.971Z,93.35
2022-10-01T06:34:42.962Z,93.30
2022-10-01T06:35:42.989Z,93.30
2022-10-01T06:36:42.944Z,93.10
2022-10-01T06:37:42.952Z,92.69
2022-10-01T06:38:42.924Z,92.53
2022-10-01T06:39:42.914Z,92.79
2022-10-01T06:40:42.901Z,92.90
2022-10-01T06:41:42.885Z,92.69
2022-10-01T06:42:42.894Z,92.79
2022-10-01T06:43:42.865Z,93.00
2022-10-01T06:44:42.853Z,93.00
2022-10-01T06:45:42.906Z,93.00
2022-10-01T06:46:42.834Z,92.79
2022-10-01T06:47:42.836Z,92.49
2022-10-01T06:48:42.813Z,92.28
2022-10-01T06:49:46.770Z,92.59
2022-10-01T06:50:42.787Z,92.49
2022-10-01T06:51:42.786Z,92.79
2022-10-01T06:52:42.789Z,92.79
2022-10-01T06:53:42.757Z,93.00
2022-10-01T06:54:42.748Z,93.00
2022-10-01T06:55:42.738Z,93.10
2022-10-01T06:56:42.727Z,93.10
2022-10-01T06:57:42.730Z,93.00
2022-10-01T06:58:42.698Z,93.20
2022-10-01T06:59:42.700Z,92.79
2022-10-01T07:00:42.741Z,93.00
2022-10-01T07:01:42.772Z,93.30
2022-10-01T07:02:42.722Z,93.30
2022-10-01T07:03:42.651Z,93.20
2022-10-01T07:04:42.641Z,93.00
2022-10-01T07:05:42.630Z,93.10
2022-10-01T07:06:42.623Z,93.00
2022-10-01T07:07:42.631Z,93.20
2022-10-01T07:08:42.592Z,93.51
2022-10-01T07:09:42.592Z,93.41
2022-10-01T07:10:42.572Z,93.30
2022-10-01T07:11:42.573Z,93.20
2022-10-01T07:12:42.575Z,93.41
2022-10-01T07:13:42.543Z,93.30
2022-10-01T07:14:42.534Z,93.41
2022-10-01T07:15:42.543Z,93.41
2022-10-01T07:16:42.562Z,93.51
2022-10-01T07:17:42.524Z,93.30
2022-10-01T07:18:42.494Z,93.41
2022-10-01T07:19:42.494Z,93.41
2022-10-01T07:20:42.486Z,93.00
2022-10-01T07:21:42.466Z,93.30
2022-10-01T07:22:43.475Z,93.41
2022-10-01T07:23:42.446Z,93.30
2022-10-01T07:24:42.435Z,93.30
2022-10-01T07:25:42.427Z,93.20
2022-10-01T07:26:42.410Z,92.90
2022-10-01T07:27:42.417Z,92.79
2022-10-01T07:28:42.388Z,92.79
2022-10-01T07:29:42.389Z,93.00
2022-10-01T07:30:42.378Z,92.90
2022-10-01T07:31:42.383Z,93.00
2022-10-01T07:32:42.358Z,92.69
2022-10-01T07:33:42.358Z,92.69
2022-10-01T07:34:42.329Z,92.38
2022-10-01T07:35:42.313Z,92.49
2022-10-01T07:36:42.300Z,92.69
2022-10-01T07:37:42.310Z,92.90
2022-10-01T07:38:42.280Z,92.90
2022-10-01T07:39:42.270Z,92.59
2022-10-01T07:40:42.258Z,92.49
2022-10-01T07:41:42.252Z,92.49
2022-10-01T07:42:42.252Z,92.38
2022-10-01T07:43:42.232Z,92.59
2022-10-01T07:44:42.229Z,92.65
2022-10-01T07:45:42.260Z,92.75
2022-10-01T07:46:42.193Z,92.34
2022-10-01T07:47:42.204Z,92.44
2022-10-01T07:48:42.174Z,92.24
2022-10-01T07:49:42.170Z,92.44
2022-10-01T07:50:42.154Z,92.24
2022-10-01T07:51:42.144Z,92.24
2022-10-01T07:52:42.151Z,92.44
2022-10-01T07:53:42.128Z,92.44
2022-10-01T07:54:42.125Z,92.03
2022-10-01T07:55:42.114Z,91.63
2022-10-01T07:56:42.095Z,91.52
2022-10-01T07:57:42.105Z,91.63
2022-10-01T07:58:42.066Z,91.83
2022-10-01T07:59:42.069Z,91.93
2022-10-01T08:00:42.046Z,91.93
2022-10-01T08:01:42.143Z,91.83
2022-10-01T08:02:42.080Z,91.83
2022-10-01T08:03:42.020Z,92.03
2022-10-01T08:04:42.007Z,91.93
2022-10-01T08:05:42.000Z,91.73
2022-10-01T08:06:41.979Z,91.52
2022-10-01T08:07:41.992Z,91.63
2022-10-01T08:08:41.959Z,91.93
2022-10-01T08:09:41.968Z,91.63
2022-10-01T08:10:41.960Z,91.63
2022-10-01T08:11:41.941Z,91.93
2022-10-01T08:12:41.938Z,91.83
2022-10-01T08:13:41.921Z,91.93
2022-10-01T08:14:41.901Z,91.93
2022-10-01T08:15:41.901Z,91.69
2022-10-01T08:16:41.938Z,91.89
2022-10-01T08:17:41.892Z,91.99
2022-10-01T08:18:41.860Z,92.10
2022-10-01T08:19:41.967Z,92.30
2022-10-01T08:20:41.834Z,92.19
2022-10-01T08:21:41.834Z,92.40
2022-10-01T08:22:42.460Z,92.50
2022-10-01T08:23:41.814Z,92.30
2022-10-01T08:24:41.794Z,92.40
2022-10-01T08:25:41.792Z,92.30
2022-10-01T08:26:41.775Z,91.89
2022-10-01T08:27:41.784Z,92.10
2022-10-01T08:28:41.767Z,92.10
2022-10-01T08:29:41.757Z,92.10
2022-10-01T08:30:41.744Z,92.10
2022-10-01T08:31:41.789Z,91.78
2022-10-01T08:32:41.727Z,91.89
2022-10-01T08:33:41.707Z,92.10
2022-10-01T08:34:41.689Z,92.19
2022-10-01T08:35:41.689Z,92.30
2022-10-01T08:36:41.667Z,92.40
2022-10-01T08:37:41.678Z,92.40
2022-10-01T08:38:41.658Z,92.40
2022-10-01T08:39:41.639Z,92.19
2022-10-01T08:40:41.629Z,92.10
2022-10-01T08:41:41.620Z,92.19
2022-10-01T08:42:41.619Z,92.19
2022-10-01T08:43:41.600Z,91.78
2022-10-01T08:44:41.589Z,91.99
2022-10-01T08:45:41.722Z,92.40
2022-10-01T08:46:41.621Z,92.40
2022-10-01T08:47:41.571Z,92.60
2022-10-01T08:48:41.542Z,92.71
2022-10-01T08:49:41.535Z,92.60
2022-10-01T08:50:41.529Z,92.50
2022-10-01T08:51:41.512Z,92.60
2022-10-01T08:52:41.512Z,92.71
2022-10-01T08:53:41.492Z,92.60
2022-10-01T08:54:41.492Z,92.71
2022-10-01T08:55:41.474Z,92.30
2022-10-01T08:56:41.464Z,92.40
2022-10-01T08:57:41.464Z,92.50
2022-10-01T08:58:41.434Z,92.60
2022-10-01T08:59:41.424Z,92.71
2022-10-01T09:00:41.415Z,93.01
2022-10-01T09:01:41.447Z,92.81
2022-10-01T09:02:41.411Z,93.12
2022-10-01T09:03:41.386Z,93.12
2022-10-01T09:04:41.406Z,93.01
2022-10-01T09:05:41.376Z,93.01
2022-10-01T09:06:41.357Z,93.12
2022-10-01T09:07:41.367Z,93.22
2022-10-01T09:08:41.328Z,93.22
2022-10-01T09:09:41.337Z,93.01
2022-10-01T09:10:41.308Z,93.12
2022-10-01T09:11:41.308Z,93.38
2022-10-01T09:12:41.308Z,93.59
2022-10-01T09:13:41.279Z,93.48
2022-10-01T09:14:41.282Z,93.48
2022-10-01T09:15:41.270Z,93.48
2022-10-01T09:16:41.323Z,93.99
2022-10-01T09:17:41.250Z,93.99
2022-10-01T09:18:41.231Z,93.89
2022-10-01T09:19:42.811Z,93.69
2022-10-01T09:20:41.222Z,93.69
2022-10-01T09:21:41.202Z,93.48
2022-10-01T09:22:41.212Z,93.18
2022-10-01T09:23:41.192Z,92.97
2022-10-01T09:24:41.179Z,92.97
2022-10-01T09:25:41.154Z,93.07
2022-10-01T09:26:41.158Z,93.07
2022-10-01T09:27:41.155Z,93.07
2022-10-01T09:28:41.124Z,92.56
2022-10-01T09:29:41.124Z,92.56
2022-10-01T09:30:41.104Z,92.66
2022-10-01T09:31:41.148Z,92.46
2022-10-01T09:32:41.095Z,92.46
2022-10-01T09:33:41.075Z,92.66
2022-10-01T09:34:41.057Z,92.77
2022-10-01T09:35:41.046Z,92.77
2022-10-01T09:36:41.042Z,92.66
2022-10-01T09:37:41.065Z,92.56
2022-10-01T09:38:41.028Z,92.77
2022-10-01T09:39:41.007Z,92.77
2022-10-01T09:40:40.997Z,92.83
2022-10-01T09:41:40.989Z,92.83
2022-10-01T09:42:40.988Z,92.83
2022-10-01T09:43:40.969Z,93.03
2022-10-01T09:44:40.948Z,92.83
2022-10-01T09:45:41.000Z,92.72
2022-10-01T09:46:40.932Z,92.83
2022-10-01T09:47:40.945Z,92.72
2022-10-01T09:48:40.912Z,92.83
2022-10-01T09:49:40.900Z,93.03
2022-10-01T09:50:40.892Z,93.03
2022-10-01T09:51:41.278Z,93.03
2022-10-01T09:52:40.883Z,93.03
2022-10-01T09:53:40.862Z,92.72
2022-10-01T09:54:40.851Z,92.83
2022-10-01T09:55:40.842Z,92.83
2022-10-01T09:56:40.832Z,92.62
2022-10-01T09:57:40.833Z,92.32
2022-10-01T09:58:40.804Z,92.32
2022-10-01T09:59:40.803Z,92.42
2022-10-01T10:00:40.805Z,92.62
2022-10-01T10:01:40.823Z,92.62
2022-10-01T10:02:44.608Z,92.42
2022-10-01T10:03:41.813Z,92.01
2022-10-01T10:04:40.753Z,92.11
2022-10-01T10:05:40.736Z,92.11
2022-10-01T10:06:40.743Z,92.42
2022-10-01T10:07:40.728Z,92.17
2022-10-01T10:08:40.707Z,92.07
2022-10-01T10:09:40.709Z,91.96
2022-10-01T10:10:40.688Z,91.96
2022-10-01T10:11:40.678Z,92.17
2022-10-01T10:12:40.677Z,92.27
2022-10-01T10:13:40.670Z,92.47
2022-10-01T10:14:40.649Z,92.27
2022-10-01T10:15:40.664Z,92.27
2022-10-01T10:16:40.629Z,91.96
2022-10-01T10:17:40.619Z,92.17
2022-10-01T10:18:40.611Z,92.27
2022-10-01T10:19:40.590Z,92.47
2022-10-01T10:20:40.591Z,92.27
2022-10-01T10:21:40.571Z,92.37
2022-10-01T10:22:40.609Z,92.27
2022-10-01T10:23:40.551Z,92.58
2022-10-01T10:24:40.541Z,92.58
2022-10-01T10:25:40.521Z,92.68
2022-10-01T10:26:40.523Z,92.37
2022-10-01T10:27:40.523Z,92.47
2022-10-01T10:28:43.800Z,92.68
2022-10-01T10:29:40.483Z,92.84
2022-10-01T10:30:40.474Z,93.15
2022-10-01T10:31:40.530Z,93.25
2022-10-01T10:32:40.485Z,93.35
2022-10-01T10:33:40.460Z,93.45
2022-10-01T10:34:40.445Z,92.84
2022-10-01T10:35:40.425Z,93.25
2022-10-01T10:36:40.416Z,93.45
2022-10-01T10:37:40.428Z,93.55
2022-10-01T10:38:40.400Z,93.66
2022-10-01T10:39:40.387Z,93.86
2022-10-01T10:40:40.384Z,93.86
2022-10-01T10:41:40.357Z,93.55
2022-10-01T10:42:40.368Z,93.55
2022-10-01T10:43:40.337Z,93.35
2022-10-01T10:44:40.343Z,93.15
2022-10-01T10:45:40.319Z,93.45
2022-10-01T10:46:44.112Z,93.66
2022-10-01T10:47:41.309Z,93.66
2022-10-01T10:48:40.289Z,93.45
2022-10-01T10:49:40.269Z,93.35
2022-10-01T10:50:40.269Z,93.35
2022-10-01T10:51:40.270Z,93.45
2022-10-01T10:52:44.981Z,93.15
2022-10-01T10:53:41.239Z,92.84
2022-10-01T10:54:40.253Z,92.94
2022-10-01T10:55:40.221Z,92.84
2022-10-01T10:56:40.211Z,92.64
2022-10-01T10:57:40.205Z,92.54
2022-10-01T10:58:40.193Z,92.74
2022-10-01T10:59:40.173Z,92.69
2022-10-01T11:00:40.171Z,93.10
2022-10-01T11:01:40.247Z,92.90
2022-10-01T11:02:40.217Z,93.00
2022-10-01T11:03:40.132Z,92.69
2022-10-01T11:04:40.124Z,92.39
2022-10-01T11:05:40.105Z,92.19
2022-10-01T11:06:40.181Z,91.98
2022-10-01T11:07:40.105Z,92.08
2022-10-01T11:08:40.085Z,92.29
2022-10-01T11:09:40.076Z,92.39
2022-10-01T11:10:40.064Z,92.59
2022-10-01T11:11:40.046Z,92.86
2022-10-01T11:12:40.066Z,93.16
2022-10-01T11:13:40.046Z,93.16
2022-10-01T11:14:40.017Z,92.76
2022-10-01T11:15:40.054Z,92.65
2022-10-01T11:16:40.089Z,92.65
2022-10-01T11:17:39.999Z,92.55
2022-10-01T11:18:39.979Z,92.55
2022-10-01T11:19:39.968Z,92.55
2022-10-01T11:20:39.950Z,92.86
2022-10-01T11:21:39.951Z,92.24
2022-10-01T11:22:39.961Z,92.50
2022-10-01T11:23:39.920Z,92.24
2022-10-01T11:24:39.910Z,92.41
2022-10-01T11:25:39.902Z,92.81
2022-10-01T11:26:39.944Z,92.71
2022-10-01T11:27:39.894Z,92.41
2022-10-01T11:28:39.881Z,92.61
2022-10-01T11:29:39.853Z,92.81
2022-10-01T11:30:39.846Z,92.81
2022-10-01T11:31:39.951Z,92.41
2022-10-01T11:32:39.843Z,92.10
2022-10-01T11:33:39.816Z,92.30
2022-10-01T11:34:39.812Z,92.41
2022-10-01T11:35:39.784Z,91.59
2022-10-01T11:36:39.797Z,91.69
2022-10-01T11:37:39.786Z,91.69
2022-10-01T11:38:39.760Z,91.79
2022-10-01T11:39:39.753Z,91.79
2022-10-01T11:40:39.737Z,91.69
2022-10-01T11:41:39.726Z,92.00
2022-10-01T11:42:39.736Z,92.00
2022-10-01T11:43:39.706Z,91.89
2022-10-01T11:44:39.697Z,92.00
2022-10-01T11:45:39.677Z,92.10
2022-10-01T11:46:39.815Z,91.89
2022-10-01T11:47:39.668Z,91.89
2022-10-01T11:48:39.660Z,91.79
2022-10-01T11:49:39.639Z,91.89
2022-10-01T11:50:39.640Z,91.96
2022-10-01T11:51:39.620Z,92.05
2022-10-01T11:52:39.620Z,91.85
2022-10-01T11:53:39.601Z,91.55
2022-10-01T11:54:39.591Z,91.03
2022-10-01T11:55:39.573Z,91.14
2022-10-01T11:56:39.590Z,91.03
2022-10-01T11:57:39.572Z,91.14
2022-10-01T11:58:39.551Z,90.94
2022-10-01T11:59:39.541Z,90.83
2022-10-01T12:00:39.532Z,91.14
2022-10-01T12:01:39.573Z,91.44
2022-10-01T12:02:39.521Z,91.65
2022-10-01T12:03:39.494Z,91.85
2022-10-01T12:04:39.492Z,91.75
2022-10-01T12:05:39.509Z,91.55
2022-10-01T12:06:39.917Z,91.55
2022-10-01T12:07:39.473Z,91.75
2022-10-01T12:08:39.454Z,91.85
2022-10-01T12:09:39.426Z,91.35
2022-10-01T12:10:39.424Z,90.99
2022-10-01T12:11:39.405Z,90.99
2022-10-01T12:12:39.425Z,90.69
2022-10-01T12:13:39.387Z,90.69
2022-10-01T12:14:39.377Z,90.89
2022-10-01T12:15:39.366Z,90.69
2022-10-01T12:16:39.815Z,90.59
2022-10-01T12:17:39.358Z,90.18
2022-10-01T12:18:39.355Z,90.18
2022-10-01T12:19:39.319Z,90.18
2022-10-01T12:20:39.316Z,90.28
2022-10-01T12:21:39.299Z,90.18
2022-10-01T12:22:39.299Z,90.38
2022-10-01T12:23:39.299Z,90.08
2022-10-01T12:24:39.270Z,89.97
2022-10-01T12:25:39.260Z,89.77
2022-10-01T12:26:39.384Z,89.87
2022-10-01T12:27:39.238Z,89.87
2022-10-01T12:28:39.241Z,89.87
2022-10-01T12:29:39.212Z,90.18
2022-10-01T12:30:39.210Z,90.18
2022-10-01T12:31:39.225Z,90.38
2022-10-01T12:32:39.183Z,90.48
2022-10-01T12:33:39.184Z,90.28
2022-10-01T12:34:39.162Z,90.69
2022-10-01T12:35:39.154Z,90.59
2022-10-01T12:36:39.200Z,91.09
2022-10-01T12:37:39.131Z,91.50
2022-10-01T12:38:39.135Z,91.71
2022-10-01T12:39:39.104Z,91.81
2022-10-01T12:40:39.105Z,92.22
2022-10-01T12:41:39.086Z,92.83
2022-10-01T12:42:39.075Z,93.29
2022-10-01T12:43:39.085Z,93.40
2022-10-01T12:44:39.056Z,93.70
2022-10-01T12:45:39.048Z,93.50
2022-10-01T12:46:39.306Z,93.40
2022-10-01T12:47:39.027Z,93.29
2022-10-01T12:48:39.027Z,93.29
2022-10-01T12:49:39.005Z,93.60
2022-10-01T12:50:39.008Z,93.90
2022-10-01T12:51:38.981Z,93.50
2022-10-01T12:52:38.980Z,93.90